createdAt,value
2018-09-28T00:00:58.990Z,15.17
2018-09-28T00:03:28.006Z,15.58
2018-09-28T00:05:56.818Z,14.37
2018-09-28T00:08:25.691Z,14.90
2018-09-28T00:10:54.246Z,15.27
2018-09-28T00:13:22.794Z,13.80
2018-09-28T00:15:51.346Z,15.40
2018-09-28T00:18:19.874Z,15.77
2018-09-28T00:20:48.413Z,15.13
2018-09-28T00:23:17.009Z,15.10
2018-09-28T00:25:45.843Z,15.90
2018-09-28T00:28:14.674Z,14.38
2018-09-28T00:30:43.449Z,14.03
2018-09-28T00:33:11.981Z,14.70
2018-09-28T00:35:40.543Z,14.37
2018-09-28T00:38:09.088Z,14.40
2018-09-28T00:40:37.933Z,14.07
2018-09-28T00:43:06.468Z,14.70
2018-09-28T00:45:35.025Z,12.70
2018-09-28T00:48:03.579Z,12.03
2018-09-28T00:50:32.163Z,10.60
2018-09-28T00:53:00.679Z,9.73
2018-09-28T00:55:29.200Z,8.63
2018-09-28T00:57:57.725Z,7.73
2018-09-28T01:00:26.266Z,6.37
2018-09-28T01:02:54.785Z,5.50
2018-09-28T01:05:23.951Z,5.67
2018-09-28T01:07:52.752Z,5.03
2018-09-28T01:10:21.399Z,5.37
2018-09-28T01:12:49.917Z,5.33
2018-09-28T01:15:18.445Z,5.63
2018-09-28T01:17:46.961Z,5.23
2018-09-28T01:20:16.021Z,5.00
2018-09-28T01:22:48.777Z,5.30
2018-09-28T01:25:17.293Z,5.20
2018-09-28T01:27:45.847Z,4.93
2018-09-28T01:30:14.740Z,4.73
2018-09-28T01:32:43.289Z,4.93
2018-09-28T01:35:11.847Z,4.07
2018-09-28T01:37:40.444Z,5.07
2018-09-28T01:40:09.168Z,5.37
2018-09-28T01:42:37.724Z,4.80
2018-09-28T01:45:06.285Z,5.63
2018-09-28T01:47:34.816Z,5.20
2018-09-28T01:50:03.555Z,4.63
2018-09-28T01:52:32.750Z,4.47
2018-09-28T01:55:01.310Z,3.57
2018-09-28T01:57:29.846Z,3.50
2018-09-28T01:59:58.413Z,4.47
2018-09-28T02:02:27.217Z,4.10
2018-09-28T02:04:55.809Z,3.65
2018-09-28T02:07:24.545Z,3.00
2018-09-28T02:09:53.058Z,3.23
2018-09-28T02:12:21.590Z,3.37
2018-09-28T02:14:50.140Z,3.23
2018-09-28T02:17:18.671Z,3.03
2018-09-28T02:19:47.197Z,3.20
2018-09-28T02:22:16.165Z,2.97
2018-09-28T02:24:44.677Z,3.27
2018-09-28T02:27:13.361Z,3.07
2018-09-28T02:29:41.925Z,3.47
2018-09-28T02:32:10.441Z,2.77
2018-09-28T02:34:39.025Z,3.13
2018-09-28T02:37:08.566Z,3.33
2018-09-28T02:39:37.122Z,3.50
2018-09-28T02:42:05.664Z,3.37
2018-09-28T02:44:34.998Z,2.50
2018-09-28T02:47:03.528Z,3.20
2018-09-28T02:49:32.049Z,2.70
2018-09-28T02:52:00.580Z,3.63
2018-09-28T02:54:29.101Z,4.27
2018-09-28T02:56:57.834Z,2.90
2018-09-28T02:59:26.814Z,3.00
2018-09-28T03:01:55.435Z,3.77
2018-09-28T03:04:23.974Z,2.93
2018-09-28T03:06:52.561Z,3.03
2018-09-28T03:09:21.079Z,3.33
2018-09-28T03:11:49.593Z,3.87
2018-09-28T03:14:18.129Z,4.03
2018-09-28T03:16:46.661Z,3.30
2018-09-28T03:19:15.203Z,2.90
2018-09-28T03:21:44.081Z,3.73
2018-09-28T03:24:12.596Z,3.47
2018-09-28T03:26:41.215Z,2.40
2018-09-28T03:29:09.741Z,3.50
2018-09-28T03:31:38.271Z,2.63
2018-09-28T03:34:08.206Z,3.27
2018-09-28T03:36:36.739Z,2.33
2018-09-28T03:39:06.851Z,2.40
2018-09-28T03:41:35.382Z,2.47
2018-09-28T03:44:03.914Z,2.63
2018-09-28T03:46:32.548Z,2.37
2018-09-28T03:49:01.061Z,1.90
2018-09-28T03:51:29.567Z,1.90
2018-09-28T03:53:58.706Z,2.30
2018-09-28T03:56:27.391Z,1.93
2018-09-28T03:58:56.180Z,1.80
2018-09-28T04:01:24.678Z,1.73
2018-09-28T04:03:53.212Z,1.50
2018-09-28T04:06:21.749Z,1.30
2018-09-28T04:08:50.297Z,1.33
2018-09-28T04:11:18.801Z,1.53
2018-09-28T04:13:47.308Z,1.67
2018-09-28T04:16:15.879Z,1.37
2018-09-28T04:18:44.409Z,1.50
2018-09-28T04:21:12.985Z,1.43
2018-09-28T04:23:41.514Z,1.13
2018-09-28T04:26:10.056Z,1.40
2018-09-28T04:28:38.787Z,1.30
2018-09-28T04:31:07.365Z,1.03
2018-09-28T04:33:36.167Z,1.40
2018-09-28T04:36:04.689Z,2.02
2018-09-28T04:38:34.034Z,1.50
2018-09-28T04:41:02.550Z,1.00
2018-09-28T04:43:31.081Z,1.43
2018-09-28T04:45:59.645Z,1.70
2018-09-28T04:48:28.160Z,1.80
2018-09-28T04:50:56.854Z,1.33
2018-09-28T04:53:25.388Z,1.60
2018-09-28T04:55:54.088Z,1.30
2018-09-28T04:58:22.671Z,1.93
2018-09-28T05:00:51.167Z,2.00
2018-09-28T05:03:19.689Z,2.57
2018-09-28T05:05:49.090Z,1.90
2018-09-28T05:08:22.313Z,2.23
2018-09-28T05:10:50.834Z,1.67
2018-09-28T05:13:21.486Z,2.17
2018-09-28T05:15:50.215Z,2.67
2018-09-28T05:18:18.791Z,2.70
2018-09-28T05:20:47.287Z,2.17
2018-09-28T05:23:15.918Z,2.20
2018-09-28T05:25:44.825Z,2.03
2018-09-28T05:28:13.348Z,2.60
2018-09-28T05:30:44.969Z,2.10
2018-09-28T05:33:10.422Z,1.90
2018-09-28T05:35:38.949Z,2.07
2018-09-28T05:38:07.470Z,2.17
2018-09-28T05:40:37.301Z,2.72
2018-09-28T05:43:05.840Z,1.77
2018-09-28T05:45:34.353Z,2.60
2018-09-28T05:48:02.897Z,2.00
2018-09-28T05:50:31.417Z,2.60
2018-09-28T05:52:59.943Z,2.13
2018-09-28T05:55:29.053Z,2.20
2018-09-28T06:00:04.346Z,2.70
2018-09-28T06:02:38.290Z,2.47
2018-09-28T06:05:12.167Z,2.40
2018-09-28T06:07:44.845Z,2.30
2018-09-28T06:10:25.818Z,2.23
2018-09-28T06:13:01.976Z,1.97
2018-09-28T06:15:31.047Z,3.27
2018-09-28T06:17:59.674Z,2.60
2018-09-28T06:20:35.823Z,2.72
2018-09-28T06:23:04.554Z,2.40
2018-09-28T06:25:33.086Z,2.60
2018-09-28T06:28:01.624Z,2.20
2018-09-28T06:30:30.973Z,2.10
2018-09-28T06:33:00.873Z,2.47
2018-09-28T06:35:35.932Z,2.30
2018-09-28T06:38:10.037Z,2.23
2018-09-28T06:43:39.225Z,2.03
2018-09-28T06:46:22.364Z,1.97
2018-09-28T06:49:02.558Z,2.12
2018-09-28T06:51:36.313Z,2.10
2018-09-28T06:54:09.428Z,1.77
2018-09-28T06:56:38.907Z,2.13
2018-09-28T06:59:15.427Z,2.13
2018-09-28T07:01:44.455Z,2.23
2018-09-28T07:04:12.984Z,2.30
2018-09-28T07:06:46.533Z,2.40
2018-09-28T07:09:15.564Z,2.60
2018-09-28T07:11:45.044Z,2.60
2018-09-28T07:14:18.750Z,2.40
2018-09-28T07:16:53.500Z,2.73
2018-09-28T07:22:29.133Z,2.73
2018-09-28T07:24:58.704Z,2.93
2018-09-28T07:27:27.283Z,2.10
2018-09-28T07:29:58.515Z,2.07
2018-09-28T07:32:29.870Z,2.37
2018-09-28T07:34:58.782Z,2.40
2018-09-28T07:37:28.218Z,2.70
2018-09-28T07:39:58.143Z,2.00
2018-09-28T07:42:42.859Z,2.23
2018-09-28T07:45:16.754Z,2.57
2018-09-28T07:50:31.000Z,2.97
2018-09-28T07:53:00.698Z,2.42
2018-09-28T07:55:29.243Z,2.50
2018-09-28T07:57:57.801Z,2.20
2018-09-28T08:00:26.497Z,2.43
2018-09-28T08:02:55.039Z,1.95
2018-09-28T08:05:24.107Z,2.30
2018-09-28T08:08:04.446Z,2.07
2018-09-28T08:10:41.150Z,1.80
2018-09-28T08:13:09.718Z,1.90
2018-09-28T08:15:38.258Z,2.73
2018-09-28T08:18:12.541Z,1.90
2018-09-28T08:23:39.522Z,2.07
2018-09-28T08:26:21.742Z,2.10
2018-09-28T08:28:54.621Z,2.13
2018-09-28T08:31:24.700Z,2.30
2018-09-28T08:33:53.237Z,2.93
2018-09-28T08:36:23.179Z,3.10
2018-09-28T08:38:51.973Z,2.30
2018-09-28T08:41:20.502Z,2.17
2018-09-28T08:43:58.445Z,2.37
2018-09-28T08:46:31.669Z,1.87
2018-09-28T08:49:06.855Z,2.57
2018-09-28T08:51:47.412Z,2.03
2018-09-28T08:54:19.366Z,1.90
2018-09-28T08:56:49.433Z,1.83
2018-09-28T08:59:21.402Z,1.87
2018-09-28T09:01:49.945Z,2.80
2018-09-28T09:04:18.466Z,2.43
2018-09-28T09:06:50.435Z,1.97
2018-09-28T09:09:27.651Z,2.50
2018-09-28T09:12:00.394Z,2.37
2018-09-28T09:14:31.501Z,1.53
2018-09-28T09:17:19.406Z,1.40
2018-09-28T09:20:06.250Z,1.75
2018-09-28T09:22:38.686Z,2.00
2018-09-28T09:25:13.772Z,1.87
2018-09-28T09:27:43.114Z,1.43
2018-09-28T09:30:11.958Z,1.77
2018-09-28T09:32:40.897Z,1.70
2018-09-28T09:35:09.427Z,1.57
2018-09-28T09:37:37.945Z,1.90
2018-09-28T09:40:06.777Z,1.80
2018-09-28T09:42:35.284Z,1.73
2018-09-28T09:45:03.862Z,2.03
2018-09-28T09:47:32.398Z,1.43
2018-09-28T09:50:01.285Z,1.53
2018-09-28T09:52:29.814Z,1.70
2018-09-28T09:54:58.433Z,1.40
2018-09-28T09:57:26.997Z,1.87
2018-09-28T09:59:55.532Z,1.30
2018-09-28T10:02:30.569Z,1.55
2018-09-28T10:04:59.090Z,1.60
2018-09-28T10:07:27.605Z,1.53
2018-09-28T10:09:56.450Z,1.87
2018-09-28T10:12:24.971Z,1.67
2018-09-28T10:14:53.517Z,1.97
2018-09-28T10:17:22.261Z,1.60
2018-09-28T10:19:51.363Z,1.47
2018-09-28T10:22:19.890Z,1.90
2018-09-28T10:24:48.514Z,2.00
2018-09-28T10:27:17.040Z,1.40
2018-09-28T10:29:46.570Z,2.07
2018-09-28T10:32:15.108Z,1.40
2018-09-28T10:34:43.686Z,1.30
2018-09-28T10:37:12.145Z,2.07
2018-09-28T10:39:40.721Z,1.60
2018-09-28T10:42:09.234Z,1.60
2018-09-28T10:44:37.747Z,1.80
2018-09-28T10:47:06.351Z,1.20
2018-09-28T10:49:34.871Z,1.67
2018-09-28T10:52:03.601Z,1.40
2018-09-28T10:54:38.118Z,1.60
2018-09-28T10:57:06.780Z,1.40
2018-09-28T10:59:35.673Z,1.33
2018-09-28T11:02:04.665Z,1.63
2018-09-28T11:04:33.260Z,1.90
2018-09-28T11:07:01.764Z,1.20
2018-09-28T11:09:30.744Z,1.92
2018-09-28T11:11:59.398Z,2.37
2018-09-28T11:14:27.909Z,1.43
2018-09-28T11:17:01.817Z,1.40
2018-09-28T11:19:32.374Z,1.70
2018-09-28T11:22:01.281Z,2.05
2018-09-28T11:24:29.797Z,2.20
2018-09-28T11:26:58.338Z,1.87
2018-09-28T11:29:26.866Z,1.90
2018-09-28T11:31:55.425Z,1.93
2018-09-28T11:34:24.067Z,2.07
2018-09-28T11:36:52.601Z,2.03
2018-09-28T11:39:21.223Z,1.77
2018-09-28T11:41:49.772Z,2.08
2018-09-28T11:44:18.377Z,1.97
2018-09-28T11:46:46.923Z,1.43
2018-09-28T11:49:15.533Z,1.40
2018-09-28T11:51:44.333Z,1.40
2018-09-28T11:54:17.293Z,1.07
2018-09-28T11:56:53.588Z,1.40
2018-09-28T11:59:26.280Z,1.20
2018-09-28T12:01:54.843Z,1.60
2018-09-28T12:04:23.357Z,1.23
2018-09-28T12:06:56.926Z,1.53
2018-09-28T12:09:35.141Z,1.60
2018-09-28T12:12:13.608Z,1.43
2018-09-28T12:14:46.809Z,1.77
2018-09-28T12:17:20.224Z,1.20
2018-09-28T12:19:49.942Z,1.43
2018-09-28T12:22:21.761Z,1.00
2018-09-28T12:24:54.994Z,1.13
2018-09-28T12:27:26.510Z,1.70
2018-09-28T12:29:54.980Z,1.10
2018-09-28T12:32:23.511Z,0.97
2018-09-28T12:34:52.065Z,1.10
2018-09-28T12:37:20.580Z,0.93
2018-09-28T12:39:49.243Z,1.50
2018-09-28T12:42:17.750Z,1.30
2018-09-28T12:44:46.301Z,1.60
2018-09-28T12:47:14.829Z,1.00
2018-09-28T12:49:43.407Z,1.30
2018-09-28T12:52:12.055Z,1.23
2018-09-28T12:54:40.673Z,1.37
2018-09-28T12:57:09.642Z,1.40
2018-09-28T12:59:39.157Z,1.60
2018-09-28T13:02:15.427Z,1.20
2018-09-28T13:04:50.928Z,1.75
2018-09-28T13:07:29.045Z,1.57
2018-09-28T13:10:13.293Z,1.40
2018-09-28T13:12:58.403Z,1.43
2018-09-28T13:15:31.870Z,1.37
2018-09-28T13:18:01.552Z,1.40
2018-09-28T13:20:43.662Z,1.60
2018-09-28T13:23:13.541Z,1.50
2018-09-28T13:25:44.672Z,1.23
2018-09-28T13:28:25.156Z,1.40
2018-09-28T13:30:56.218Z,1.20
2018-09-28T13:33:41.906Z,1.53
2018-09-28T13:36:18.254Z,2.07
2018-09-28T13:38:51.102Z,1.50
2018-09-28T13:41:22.363Z,1.87
2018-09-28T13:46:35.430Z,1.43
2018-09-28T13:49:04.961Z,1.70
2018-09-28T13:51:35.730Z,1.67
2018-09-28T13:54:06.504Z,1.37
2018-09-28T13:56:42.261Z,1.20
2018-09-28T13:59:12.254Z,1.63
2018-09-28T14:01:41.897Z,1.40
2018-09-28T14:04:10.486Z,1.40
2018-09-28T14:06:41.140Z,2.10
2018-09-28T14:09:10.801Z,1.60
2018-09-28T14:14:21.117Z,1.37
2018-09-28T14:16:52.783Z,1.70
2018-09-28T14:19:28.797Z,1.40
2018-09-28T14:21:59.866Z,1.60
2018-09-28T14:24:30.700Z,1.63
2018-09-28T14:27:10.418Z,1.63
2018-09-28T14:29:42.057Z,1.90
2018-09-28T14:32:12.399Z,1.10
2018-09-28T14:34:43.421Z,1.20
2018-09-28T14:37:12.457Z,1.20
2018-09-28T14:39:45.103Z,1.30
2018-09-28T14:42:25.276Z,1.37
2018-09-28T14:44:55.210Z,2.50
2018-09-28T14:47:28.682Z,1.47
2018-09-28T14:50:08.496Z,1.23
2018-09-28T14:52:40.120Z,1.33
2018-09-28T14:55:14.134Z,1.93
2018-09-28T14:57:45.453Z,1.50
2018-09-28T15:00:15.915Z,1.63
2018-09-28T15:02:44.908Z,1.27
2018-09-28T15:05:18.078Z,1.40
2018-09-28T15:07:46.711Z,1.37
2018-09-28T15:10:15.305Z,1.00
2018-09-28T15:12:44.719Z,1.30
2018-09-28T15:15:13.261Z,1.47
2018-09-28T15:17:41.752Z,1.20
2018-09-28T15:20:10.357Z,1.30
2018-09-28T15:22:38.903Z,1.30
2018-09-28T15:25:07.425Z,1.60
2018-09-28T15:27:35.937Z,1.80
2018-09-28T15:30:04.640Z,1.30
2018-09-28T15:32:33.258Z,0.83
2018-09-28T15:35:01.852Z,1.17
2018-09-28T15:37:30.373Z,1.73
2018-09-28T15:40:00.110Z,1.50
2018-09-28T15:42:28.689Z,1.83
2018-09-28T15:44:57.234Z,1.60
2018-09-28T15:47:27.756Z,1.57
2018-09-28T15:49:56.282Z,1.20
2018-09-28T15:52:25.197Z,1.20
2018-09-28T15:54:54.307Z,1.50
2018-09-28T15:57:22.916Z,1.47
2018-09-28T15:59:51.457Z,1.30
2018-09-28T16:02:29.538Z,1.17
2018-09-28T16:04:58.201Z,1.57
2018-09-28T16:07:26.773Z,1.60
2018-09-28T16:09:56.178Z,1.00
2018-09-28T16:12:26.271Z,1.83
2018-09-28T16:14:54.951Z,1.70
2018-09-28T16:17:23.485Z,2.10
2018-09-28T16:19:53.378Z,1.10
2018-09-28T16:22:23.223Z,1.30
2018-09-28T16:24:51.775Z,1.23
2018-09-28T16:27:21.985Z,1.30
2018-09-28T16:29:56.450Z,1.10
2018-09-28T16:32:25.020Z,1.53
2018-09-28T16:37:56.956Z,1.20
2018-09-28T16:40:26.016Z,1.30
2018-09-28T16:42:55.029Z,1.40
2018-09-28T16:45:23.725Z,1.83
2018-09-28T16:47:52.485Z,0.97
2018-09-28T16:50:21.324Z,1.30
2018-09-28T16:52:50.059Z,2.00
2018-09-28T16:55:18.805Z,1.70
2018-09-28T16:57:47.679Z,1.60
2018-09-28T17:00:16.324Z,1.43
2018-09-28T17:02:45.117Z,1.60
2018-09-28T17:05:13.787Z,2.22
2018-09-28T17:07:42.453Z,1.20
2018-09-28T17:10:11.658Z,2.17
2018-09-28T17:12:40.368Z,1.37
2018-09-28T17:15:09.192Z,1.50
2018-09-28T17:17:37.803Z,1.33
2018-09-28T17:20:06.592Z,1.63
2018-09-28T17:22:35.702Z,1.57
2018-09-28T17:25:04.326Z,1.17
2018-09-28T17:27:32.984Z,1.40
2018-09-28T17:30:01.844Z,1.70
2018-09-28T17:32:30.519Z,1.65
2018-09-28T17:34:59.533Z,1.30
2018-09-28T17:37:28.698Z,0.90
2018-09-28T17:39:57.381Z,1.70
2018-09-28T17:42:26.189Z,1.50
2018-09-28T17:44:54.909Z,1.67
2018-09-28T17:47:23.561Z,1.70
2018-09-28T17:49:52.196Z,1.50
2018-09-28T17:52:20.893Z,1.20
2018-09-28T17:54:49.656Z,1.40
2018-09-28T17:57:18.288Z,1.50
2018-09-28T17:59:47.060Z,1.00
2018-09-28T18:02:15.618Z,1.30
2018-09-28T18:04:44.324Z,1.27
2018-09-28T18:07:13.108Z,1.63
2018-09-28T18:09:41.806Z,1.30
2018-09-28T18:12:10.505Z,1.50
2018-09-28T18:14:39.199Z,1.60
2018-09-28T18:17:07.897Z,1.47
2018-09-28T18:19:36.937Z,2.37
2018-09-28T18:22:05.830Z,1.67
2018-09-28T18:24:34.552Z,1.53
2018-09-28T18:27:03.235Z,1.93
2018-09-28T18:29:31.943Z,1.30
2018-09-28T18:32:00.578Z,1.07
2018-09-28T18:34:29.200Z,1.37
2018-09-28T18:36:57.905Z,1.93
2018-09-28T18:39:26.588Z,1.50
2018-09-28T18:41:55.239Z,1.77
2018-09-28T18:44:23.933Z,1.92
2018-09-28T18:46:52.634Z,1.60
2018-09-28T18:49:21.321Z,2.00
2018-09-28T18:51:50.524Z,1.60
2018-09-28T18:54:19.272Z,1.40
2018-09-28T18:56:47.906Z,1.57
2018-09-28T18:59:16.553Z,1.17
2018-09-28T19:01:45.249Z,1.67
2018-09-28T19:04:13.887Z,1.50
2018-09-28T19:06:42.663Z,1.70
2018-09-28T19:09:12.176Z,1.40
2018-09-28T19:11:41.495Z,1.93
2018-09-28T19:14:10.267Z,1.47
2018-09-28T19:16:38.990Z,1.60
2018-09-28T19:19:07.674Z,1.50
2018-09-28T19:21:36.569Z,1.40
2018-09-28T19:24:05.228Z,1.70
2018-09-28T19:26:34.169Z,2.02
2018-09-28T19:29:02.873Z,1.73
2018-09-28T19:31:31.552Z,1.70
2018-09-28T19:34:00.269Z,1.40
2018-09-28T19:36:28.924Z,1.50
2018-09-28T19:38:57.997Z,1.95
2018-09-28T19:41:26.627Z,1.83
2018-09-28T19:43:55.368Z,1.47
2018-09-28T19:46:24.047Z,1.93
2018-09-28T19:48:53.316Z,1.90
2018-09-28T19:51:22.063Z,1.70
2018-09-28T19:53:50.778Z,1.90
2018-09-28T19:56:19.828Z,1.80
2018-09-28T19:58:48.536Z,1.83
2018-09-28T20:01:19.869Z,1.80
2018-09-28T20:03:48.524Z,1.55
2018-09-28T20:06:18.109Z,1.77
2018-09-28T20:08:46.874Z,1.67
2018-09-28T20:11:15.496Z,1.63
2018-09-28T20:13:44.120Z,1.53
2018-09-28T20:16:13.456Z,1.70
2018-09-28T20:18:44.356Z,1.73
2018-09-28T20:21:13.572Z,1.53
2018-09-28T20:23:42.961Z,1.43
2018-09-28T20:26:11.796Z,1.50
2018-09-28T20:28:40.460Z,1.98
2018-09-28T20:31:10.248Z,1.70
2018-09-28T20:33:38.944Z,1.43
2018-09-28T20:36:07.740Z,1.57
2018-09-28T20:38:37.353Z,2.17
2018-09-28T20:41:06.032Z,1.93
2018-09-28T20:43:35.204Z,1.63
2018-09-28T20:46:03.937Z,1.60
2018-09-28T20:48:32.789Z,1.87
2018-09-28T20:51:03.456Z,1.50
2018-09-28T20:53:32.640Z,1.40
2018-09-28T20:56:01.276Z,1.90
2018-09-28T20:58:30.118Z,3.07
2018-09-28T21:00:58.759Z,3.83
2018-09-28T21:03:27.913Z,4.60
2018-09-28T21:05:56.736Z,4.60
2018-09-28T21:08:25.754Z,4.00
2018-09-28T21:10:54.756Z,4.87
2018-09-28T21:13:23.762Z,3.70
2018-09-28T21:15:52.536Z,3.40
2018-09-28T21:18:21.120Z,3.30
2018-09-28T21:20:50.168Z,2.50
2018-09-28T21:23:18.769Z,2.60
2018-09-28T21:25:47.331Z,2.63
2018-09-28T21:28:15.936Z,1.90
2018-09-28T21:30:44.845Z,2.20
2018-09-28T21:33:14.148Z,2.03
2018-09-28T21:35:42.757Z,1.57
2018-09-28T21:38:11.312Z,1.60
2018-09-28T21:40:39.868Z,1.40
2018-09-28T21:43:08.959Z,2.03
2018-09-28T21:45:37.526Z,1.90
2018-09-28T21:48:06.127Z,1.40
2018-09-28T21:50:34.885Z,1.90
2018-09-28T21:53:03.450Z,1.90
2018-09-28T21:55:32.008Z,2.10
2018-09-28T21:58:00.571Z,2.47
2018-09-28T22:00:29.275Z,1.57
2018-09-28T22:02:58.245Z,1.97
2018-09-28T22:05:26.859Z,1.57
2018-09-28T22:07:55.413Z,1.70
2018-09-28T22:10:23.961Z,2.27
2018-09-28T22:12:52.984Z,1.53
2018-09-28T22:15:21.640Z,1.30
2018-09-28T22:17:50.219Z,1.83
2018-09-28T22:20:18.843Z,1.60
2018-09-28T22:22:47.453Z,2.23
2018-09-28T22:25:16.077Z,1.77
2018-09-28T22:27:44.644Z,2.17
2018-09-28T22:30:13.220Z,2.13
2018-09-28T22:32:41.812Z,1.53
2018-09-28T22:35:10.408Z,1.83
2018-09-28T22:37:38.994Z,1.57
2018-09-28T22:40:07.568Z,1.50
2018-09-28T22:42:36.159Z,1.87
2018-09-28T22:45:04.780Z,2.23
2018-09-28T22:47:33.331Z,1.67
2018-09-28T22:50:01.940Z,1.70
2018-09-28T22:52:30.531Z,2.03
2018-09-28T22:54:59.079Z,1.70
2018-09-28T22:57:27.708Z,2.60
2018-09-28T22:59:56.260Z,1.90
2018-09-28T23:02:24.862Z,1.90
2018-09-28T23:04:53.480Z,1.93
2018-09-28T23:07:22.029Z,1.80
2018-09-28T23:09:50.580Z,1.70
2018-09-28T23:12:19.144Z,1.63
2018-09-28T23:14:47.791Z,2.17
2018-09-28T23:17:16.412Z,1.80
2018-09-28T23:19:45.264Z,1.67
2018-09-28T23:22:13.831Z,2.07
2018-09-28T23:24:42.400Z,2.30
2018-09-28T23:27:10.969Z,1.82
2018-09-28T23:29:39.580Z,1.77
2018-09-28T23:32:08.384Z,1.83
2018-09-28T23:34:36.943Z,2.03
2018-09-28T23:37:05.520Z,2.00
2018-09-28T23:39:34.108Z,1.80
2018-09-28T23:42:02.723Z,1.90
2018-09-28T23:44:31.277Z,1.80
2018-09-28T23:46:59.858Z,1.80
2018-09-28T23:49:28.427Z,1.77
2018-09-28T23:51:57.029Z,1.93
2018-09-28T23:54:25.593Z,1.77
2018-09-28T23:56:54.142Z,2.37
2018-09-28T23:59:22.703Z,1.83
